Time;durP1;ratioP1;P1;durP2;ratioP2;P2;SDS_P1;SDS_P2;PMS_P1;PMS_P2;Temp;Humidity;BMP_temperature;BMP_pressure;BME280_temperature;BME280_humidity;BME280_pressure;Samples;Min_cycle;Max_cycle;Signal;HPM_P1;HPM_P2
2023/05/08 00:00:19;;;;;;;17.02;15.40;;;17.20;99.90;;;;;;2090939;28;20122;-71
2023/05/08 00:01:20;;;;;;;16.95;15.45;;;17.10;99.90;;;;;;2092383;28;20119;-72
2023/05/08 00:02:20;;;;;;;14.30;13.00;;;17.10;99.90;;;;;;2090089;28;20131;-72
2023/05/08 00:03:22;;;;;;;15.23;13.68;;;17.10;99.90;;;;;;2092638;28;20485;-71
2023/05/08 00:04:23;;;;;;;14.43;13.20;;;17.10;99.90;;;;;;2091830;28;20707;-72
2023/05/08 00:05:23;;;;;;;15.30;13.90;;;17.10;99.90;;;;;;2092802;28;20353;-72
2023/05/08 00:06:26;;;;;;;15.40;14.00;;;17.10;99.90;;;;;;2092109;28;20044;-72
2023/05/08 00:07:26;;;;;;;14.95;13.45;;;17.10;99.90;;;;;;2091900;28;20031;-71
2023/05/08 00:08:27;;;;;;;14.70;13.35;;;17.10;99.90;;;;;;2091996;28;20021;-72
2023/05/08 00:09:27;;;;;;;14.45;12.90;;;17.10;99.90;;;;;;2094432;28;20031;-72
2023/05/08 00:10:28;;;;;;;15.40;14.10;;;17.10;99.90;;;;;;2092770;28;20024;-71
2023/05/08 00:11:29;;;;;;;16.63;15.00;;;17.10;99.90;;;;;;2091531;28;20089;-71
2023/05/08 00:12:29;;;;;;;15.30;14.00;;;17.10;99.90;;;;;;2094742;28;20020;-72
2023/05/08 00:13:30;;;;;;;15.75;14.30;;;17.10;99.90;;;;;;2093058;28;20087;-71
2023/05/08 00:14:30;;;;;;;16.45;15.05;;;17.10;99.90;;;;;;2090631;28;20739;-72
2023/05/08 00:15:31;;;;;;;15.05;13.75;;;17.10;99.90;;;;;;2093838;28;20115;-72
2023/05/08 00:16:32;;;;;;;14.55;13.23;;;17.10;99.90;;;;;;2093271;28;20040;-71
2023/05/08 00:17:32;;;;;;;12.70;11.60;;;17.10;99.90;;;;;;2093247;28;20020;-72
2023/05/08 00:18:33;;;;;;;14.88;13.68;;;17.10;99.90;;;;;;2090873;28;20040;-71
2023/05/08 00:19:34;;;;;;;16.27;14.88;;;17.10;99.90;;;;;;2090834;28;20681;-72
2023/05/08 00:20:34;;;;;;;16.65;15.15;;;17.10;99.90;;;;;;2089829;28;20059;-72
2023/05/08 00:21:35;;;;;;;16.42;14.93;;;17.10;99.90;;;;;;2090762;28;20028;-72
2023/05/08 00:22:35;;;;;;;16.52;14.93;;;17.10;99.90;;;;;;2092388;28;20055;-71
2023/05/08 00:23:36;;;;;;;17.15;15.73;;;17.10;99.90;;;;;;2091037;28;20029;-72
2023/05/08 00:24:36;;;;;;;14.85;13.65;;;17.10;99.90;;;;;;2092382;28;20052;-72
2023/05/08 00:25:37;;;;;;;15.85;14.18;;;17.10;99.90;;;;;;2091626;28;20480;-72
2023/05/08 00:26:37;;;;;;;16.50;14.93;;;17.10;99.90;;;;;;2092498;28;20042;-72
2023/05/08 00:27:38;;;;;;;15.93;14.43;;;17.00;99.90;;;;;;2091758;28;20021;-71
2023/05/08 00:28:39;;;;;;;13.32;12.02;;;17.00;99.90;;;;;;2090320;28;20024;-71
2023/05/08 00:29:39;;;;;;;15.85;14.43;;;17.00;99.90;;;;;;2092866;28;20075;-71
2023/05/08 00:30:40;;;;;;;16.17;14.68;;;17.00;99.90;;;;;;2091521;28;20027;-72
2023/05/08 00:31:40;;;;;;;16.88;15.27;;;17.00;99.90;;;;;;2094429;28;20087;-72
2023/05/08 00:32:41;;;;;;;13.43;12.13;;;17.00;99.90;;;;;;2093415;28;20025;-72
2023/05/08 00:33:41;;;;;;;15.85;14.45;;;17.00;99.90;;;;;;2092232;28;20100;-72
2023/05/08 00:34:42;;;;;;;14.35;13.02;;;17.00;99.90;;;;;;2092788;28;20085;-71
2023/05/08 00:35:42;;;;;;;16.08;14.57;;;17.00;99.90;;;;;;2090373;28;20055;-72
2023/05/08 00:36:43;;;;;;;16.52;15.05;;;17.00;99.90;;;;;;2091525;28;20039;-72
2023/05/08 00:37:43;;;;;;;17.85;16.00;;;16.90;99.90;;;;;;2093489;28;20146;-72
2023/05/08 00:38:44;;;;;;;16.75;15.15;;;16.90;99.90;;;;;;2090751;28;20028;-71
2023/05/08 00:39:44;;;;;;;17.92;16.33;;;16.90;99.90;;;;;;2090774;28;20033;-72
2023/05/08 00:40:45;;;;;;;16.42;15.02;;;16.90;99.90;;;;;;2094502;28;20024;-72
2023/05/08 00:41:45;;;;;;;16.83;15.32;;;16.90;99.90;;;;;;2095457;28;20036;-71
2023/05/08 00:42:46;;;;;;;17.60;16.00;;;16.90;99.90;;;;;;2093359;28;20036;-72
2023/05/08 00:43:47;;;;;;;16.33;14.88;;;16.90;99.90;;;;;;2092327;28;20022;-71
2023/05/08 00:44:47;;;;;;;18.00;16.40;;;16.90;99.90;;;;;;2090531;28;20029;-72
2023/05/08 00:45:48;;;;;;;15.48;14.07;;;16.90;99.90;;;;;;2092678;28;20523;-72
2023/05/08 00:46:49;;;;;;;17.05;15.55;;;16.80;99.90;;;;;;2094114;28;20094;-72
2023/05/08 00:47:50;;;;;;;18.60;17.00;;;16.80;99.90;;;;;;2094653;28;20044;-72
2023/05/08 00:48:50;;;;;;;18.35;16.65;;;16.80;99.90;;;;;;2094654;28;20028;-72
2023/05/08 00:49:52;;;;;;;16.25;14.45;;;16.80;99.90;;;;;;2096864;28;20048;-72
2023/05/08 00:50:54;;;;;;;17.08;15.57;;;16.80;99.90;;;;;;2093660;28;20028;-72
2023/05/08 00:51:55;;;;;;;14.75;13.48;;;16.80;99.90;;;;;;2092011;28;20044;-72
2023/05/08 00:52:57;;;;;;;17.13;15.73;;;16.80;99.90;;;;;;2094935;28;20028;-72
2023/05/08 00:53:59;;;;;;;15.77;14.27;;;16.70;99.90;;;;;;2090753;28;20025;-72
2023/05/08 00:55:01;;;;;;;14.80;13.57;;;16.70;99.90;;;;;;2092661;28;20033;-72
2023/05/08 00:56:04;;;;;;;15.30;13.82;;;16.70;99.90;;;;;;2089705;28;20032;-72
2023/05/08 00:57:08;;;;;;;16.48;15.07;;;16.70;99.90;;;;;;2090494;28;20052;-72
2023/05/08 00:58:09;;;;;;;14.57;13.27;;;16.70;99.90;;;;;;2090687;28;20031;-72
2023/05/08 00:59:13;;;;;;;14.45;13.25;;;16.70;99.90;;;;;;2092668;28;20067;-72
2023/05/08 01:00:17;;;;;;;16.50;15.00;;;16.70;99.90;;;;;;2090927;28;20029;-71
2023/05/08 01:01:17;;;;;;;14.15;12.82;;;16.70;99.90;;;;;;2095618;28;20029;-71
2023/05/08 01:02:19;;;;;;;16.90;15.40;;;16.70;99.90;;;;;;2092689;28;20025;-72
2023/05/08 01:03:21;;;;;;;16.92;15.43;;;16.70;99.90;;;;;;2094483;28;20106;-72
2023/05/08 01:04:24;;;;;;;18.67;16.88;;;16.60;99.90;;;;;;2095605;28;20025;-72
2023/05/08 01:05:26;;;;;;;17.95;16.38;;;16.60;99.90;;;;;;2093883;28;20016;-71
2023/05/08 01:06:27;;;;;;;17.98;16.27;;;16.60;99.90;;;;;;2096835;28;20020;-71
2023/05/08 01:07:28;;;;;;;18.52;17.00;;;16.60;99.90;;;;;;2095165;28;20024;-74
2023/05/08 01:08:30;;;;;;;15.75;14.45;;;16.60;99.90;;;;;;2093368;28;20558;-71
2023/05/08 01:09:30;;;;;;;18.52;16.55;;;16.60;99.90;;;;;;2092901;28;20075;-71
2023/05/08 01:10:54;;;;;;;16.58;14.95;;;16.60;99.90;;;;;;2092011;28;20102;-71
2023/05/08 01:12:09;;;;;;;17.92;16.33;;;16.60;99.90;;;;;;2091976;28;20109;-73
2023/05/08 01:13:26;;;;;;;19.15;17.25;;;16.50;99.90;;;;;;2091523;28;20389;-73
2023/05/08 01:15:00;;;;;;;16.70;15.23;;;16.50;99.90;;;;;;2093748;28;20024;-74
2023/05/08 01:16:15;;;;;;;17.58;15.98;;;16.40;99.90;;;;;;2093435;28;20082;-74
2023/05/08 01:17:39;;;;;;;17.15;15.55;;;16.40;99.90;;;;;;2092265;28;20127;-74
2023/05/08 01:19:15;;;;;;;17.38;15.80;;;16.40;99.90;;;;;;2093575;28;20025;-71
2023/05/08 01:20:43;;;;;;;18.27;16.67;;;16.40;99.90;;;;;;2089456;28;20037;-73
2023/05/08 01:21:50;;;;;;;17.15;15.57;;;16.30;99.90;;;;;;2094317;28;20462;-74
2023/05/08 01:23:07;;;;;;;16.00;14.45;;;16.30;99.90;;;;;;2091775;28;20031;-72
2023/05/08 01:24:31;;;;;;;14.82;13.52;;;16.30;99.90;;;;;;2093366;28;20048;-72
2023/05/08 01:25:53;;;;;;;16.65;15.07;;;16.30;99.90;;;;;;2096682;28;20024;-72
2023/05/08 01:27:56;;;;;;;16.95;15.43;;;16.30;99.90;;;;;;2094819;28;20032;-72
2023/05/08 01:29:20;;;;;;;14.13;12.93;;;16.20;99.90;;;;;;2077928;28;20106;-71
2023/05/08 01:30:48;;;;;;;14.90;13.50;;;16.20;99.90;;;;;;2077770;28;20468;-72
2023/05/08 01:32:11;;;;;;;17.30;15.77;;;16.20;99.90;;;;;;2078170;28;20087;-71
2023/05/08 01:33:23;;;;;;;16.05;14.65;;;16.20;99.90;;;;;;2078278;28;20034;-71
2023/05/08 01:34:30;;;;;;;17.52;16.02;;;16.20;99.90;;;;;;2094322;28;20032;-72
2023/05/08 01:35:46;;;;;;;16.38;14.90;;;16.20;99.90;;;;;;2101587;28;20024;-72
2023/05/08 01:36:52;;;;;;;17.90;16.40;;;16.20;99.90;;;;;;2094991;28;20024;-72
2023/05/08 01:38:18;;;;;;;15.93;14.52;;;16.20;99.90;;;;;;2093300;28;20086;-72
2023/05/08 01:39:46;;;;;;;15.65;14.38;;;16.20;99.90;;;;;;2091427;28;20021;-72
2023/05/08 01:41:09;;;;;;;16.48;14.98;;;16.20;99.90;;;;;;2094682;28;20473;-72
2023/05/08 01:42:27;;;;;;;17.23;15.77;;;16.20;99.90;;;;;;2092849;28;20051;-72
2023/05/08 01:43:35;;;;;;;17.67;16.02;;;16.10;99.90;;;;;;2093489;28;20025;-72
2023/05/08 01:44:52;;;;;;;16.98;15.45;;;16.10;99.90;;;;;;2094174;28;20380;-72
2023/05/08 01:45:55;;;;;;;17.60;16.00;;;16.10;99.90;;;;;;2094321;28;20585;-72
2023/05/08 01:46:57;;;;;;;17.42;16.05;;;16.10;99.90;;;;;;2094570;28;20467;-72
2023/05/08 01:48:05;;;;;;;17.17;15.77;;;16.10;99.90;;;;;;2093631;28;20033;-72
2023/05/08 01:49:11;;;;;;;16.15;14.75;;;16.10;99.90;;;;;;2092488;28;20031;-72
2023/05/08 01:50:29;;;;;;;17.45;15.75;;;16.10;99.90;;;;;;2093799;28;20024;-72
2023/05/08 01:51:45;;;;;;;16.20;14.80;;;16.10;99.90;;;;;;2094742;28;20027;-72
2023/05/08 01:52:50;;;;;;;17.55;16.05;;;16.10;99.90;;;;;;2094328;28;20036;-72
2023/05/08 01:53:55;;;;;;;18.17;16.65;;;16.10;99.90;;;;;;2095323;28;20039;-71
2023/05/08 01:55:00;;;;;;;17.27;15.48;;;16.10;99.90;;;;;;2094753;28;20376;-72
2023/05/08 01:56:10;;;;;;;16.35;14.85;;;16.10;99.90;;;;;;2093427;28;20040;-72
2023/05/08 01:57:13;;;;;;;16.73;15.23;;;16.10;99.90;;;;;;2092451;28;20701;-72
2023/05/08 01:58:14;;;;;;;17.20;15.55;;;16.10;99.90;;;;;;2091310;28;20062;-72
2023/05/08 01:59:19;;;;;;;16.90;15.30;;;16.10;99.90;;;;;;2093051;28;20032;-72
2023/05/08 02:00:21;;;;;;;16.85;15.27;;;16.10;99.90;;;;;;2092467;28;20028;-71
2023/05/08 02:01:24;;;;;;;15.57;14.07;;;16.10;99.90;;;;;;2092191;28;20028;-72
2023/05/08 02:02:27;;;;;;;15.60;14.13;;;16.10;99.90;;;;;;2095010;28;20025;-72
2023/05/08 02:03:31;;;;;;;15.95;14.60;;;16.10;99.90;;;;;;2094248;28;20016;-72
2023/05/08 02:04:33;;;;;;;16.98;15.35;;;16.10;99.90;;;;;;2093574;28;20020;-72
2023/05/08 02:05:37;;;;;;;17.30;15.70;;;16.10;99.90;;;;;;2093611;28;20112;-72
2023/05/08 02:06:38;;;;;;;14.20;12.90;;;16.10;99.90;;;;;;2091601;28;20111;-72
2023/05/08 02:07:42;;;;;;;15.88;14.60;;;16.10;99.90;;;;;;2091226;28;20647;-72
2023/05/08 02:08:44;;;;;;;16.25;14.75;;;16.10;99.90;;;;;;2092878;28;20157;-71
2023/05/08 02:09:46;;;;;;;18.33;16.50;;;16.10;99.90;;;;;;2091862;28;20539;-72
2023/05/08 02:10:49;;;;;;;15.80;14.32;;;16.10;99.90;;;;;;2091453;28;20097;-72
2023/05/08 02:11:51;;;;;;;14.25;12.85;;;16.10;99.90;;;;;;2093128;28;20036;-72
2023/05/08 02:12:53;;;;;;;14.00;12.80;;;16.10;99.90;;;;;;2094022;28;20560;-72
2023/05/08 02:13:56;;;;;;;15.30;14.10;;;16.00;99.90;;;;;;2091929;28;20087;-72
2023/05/08 02:14:59;;;;;;;14.73;13.43;;;16.10;99.90;;;;;;2089697;28;20387;-72
2023/05/08 02:16:00;;;;;;;15.25;13.95;;;16.00;99.90;;;;;;2090793;28;20048;-72
2023/05/08 02:17:02;;;;;;;15.20;13.85;;;16.10;99.90;;;;;;2094277;28;20056;-72
2023/05/08 02:18:05;;;;;;;16.35;14.88;;;16.10;99.90;;;;;;2092317;28;20025;-72
2023/05/08 02:19:07;;;;;;;14.77;13.57;;;16.10;99.90;;;;;;2091975;28;20035;-72
2023/05/08 02:20:13;;;;;;;14.65;13.45;;;16.10;99.90;;;;;;2094484;28;20527;-72
2023/05/08 02:21:15;;;;;;;15.15;13.85;;;16.10;99.90;;;;;;2093449;28;20040;-72
2023/05/08 02:22:17;;;;;;;14.25;13.02;;;16.00;99.90;;;;;;2092950;28;20029;-72
2023/05/08 02:23:19;;;;;;;15.43;13.93;;;16.00;99.90;;;;;;2093185;28;20106;-72
2023/05/08 02:24:21;;;;;;;13.73;12.55;;;16.10;99.90;;;;;;2094198;28;20023;-72
2023/05/08 02:25:22;;;;;;;13.02;12.02;;;16.00;99.90;;;;;;2095238;28;20048;-72
2023/05/08 02:26:24;;;;;;;12.70;11.57;;;16.00;99.90;;;;;;2092613;28;20033;-72
2023/05/08 02:27:27;;;;;;;13.38;12.18;;;16.10;99.90;;;;;;2093624;28;20024;-72
2023/05/08 02:28:29;;;;;;;14.10;12.80;;;16.10;99.90;;;;;;2093445;28;20025;-72
2023/05/08 02:29:31;;;;;;;15.43;13.38;;;16.00;99.90;;;;;;2093193;28;20021;-72
2023/05/08 02:30:32;;;;;;;14.68;13.27;;;16.00;99.90;;;;;;2090778;28;20025;-72
2023/05/08 02:31:34;;;;;;;15.63;14.32;;;16.00;99.90;;;;;;2095915;28;20024;-72
2023/05/08 02:32:35;;;;;;;15.10;13.80;;;16.10;99.90;;;;;;2093552;28;20066;-72
2023/05/08 02:33:38;;;;;;;15.07;13.82;;;16.00;99.90;;;;;;2092459;28;20035;-72
2023/05/08 02:34:40;;;;;;;15.02;13.63;;;16.00;99.90;;;;;;2096133;28;20019;-72
2023/05/08 02:35:43;;;;;;;15.23;14.02;;;16.00;99.90;;;;;;2091037;28;20083;-72
2023/05/08 02:36:44;;;;;;;13.80;12.68;;;16.00;99.90;;;;;;2092926;28;20043;-72
2023/05/08 02:37:52;;;;;;;14.38;13.18;;;16.00;99.90;;;;;;2089160;28;20108;-72
2023/05/08 02:38:57;;;;;;;12.73;11.68;;;16.00;99.90;;;;;;2091714;28;20052;-72
2023/05/08 02:40:00;;;;;;;15.98;14.68;;;16.00;99.90;;;;;;2091432;28;20063;-72
2023/05/08 02:41:04;;;;;;;14.02;12.82;;;16.00;99.90;;;;;;2092778;28;20750;-72
2023/05/08 02:42:05;;;;;;;15.52;14.20;;;16.00;99.90;;;;;;2091314;28;20028;-72
2023/05/08 02:43:06;;;;;;;14.10;12.90;;;16.00;99.90;;;;;;2094242;28;20012;-72
2023/05/08 02:44:07;;;;;;;12.25;11.25;;;16.00;99.90;;;;;;2091303;28;20032;-72
2023/05/08 02:45:08;;;;;;;14.30;12.95;;;16.00;99.90;;;;;;2091040;28;20017;-72
2023/05/08 02:46:11;;;;;;;14.77;13.32;;;16.00;99.90;;;;;;2093567;28;20037;-72
2023/05/08 02:47:29;;;;;;;15.15;13.75;;;16.00;99.90;;;;;;2092908;28;20017;-71
2023/05/08 02:48:37;;;;;;;14.18;12.88;;;16.00;99.90;;;;;;2092467;28;20037;-72
2023/05/08 02:49:49;;;;;;;13.55;12.45;;;16.00;99.90;;;;;;2092836;28;20029;-72
2023/05/08 02:50:58;;;;;;;14.55;13.05;;;15.90;99.90;;;;;;2091138;28;20037;-72
2023/05/08 02:52:09;;;;;;;13.63;12.43;;;16.00;99.90;;;;;;2091518;28;20424;-72
2023/05/08 02:53:17;;;;;;;14.07;12.68;;;15.90;99.90;;;;;;2093987;28;20040;-72
2023/05/08 02:54:37;;;;;;;15.35;13.95;;;15.90;99.90;;;;;;2093165;28;20139;-72
2023/05/08 02:55:46;;;;;;;12.73;11.70;;;15.90;99.90;;;;;;2094297;28;20036;-72
2023/05/08 02:56:57;;;;;;;13.40;12.13;;;15.90;99.90;;;;;;2091759;28;20130;-72
2023/05/08 02:58:03;;;;;;;13.60;12.30;;;15.90;99.90;;;;;;2093311;28;20016;-72
2023/05/08 02:59:21;;;;;;;14.25;13.05;;;15.90;99.90;;;;;;2093063;28;20037;-72
2023/05/08 03:00:29;;;;;;;14.05;12.95;;;15.90;99.90;;;;;;2091974;28;20035;-72
2023/05/08 03:01:42;;;;;;;15.38;13.98;;;15.90;99.90;;;;;;2098863;28;20028;-73
2023/05/08 03:02:53;;;;;;;16.55;15.15;;;15.90;99.90;;;;;;2097321;28;20475;-72
2023/05/08 03:04:06;;;;;;;16.63;15.35;;;15.80;99.90;;;;;;2093437;28;20497;-72
2023/05/08 03:05:19;;;;;;;16.33;14.88;;;15.80;99.90;;;;;;2093114;28;20027;-72
2023/05/08 03:06:25;;;;;;;14.82;13.50;;;15.90;99.90;;;;;;2092254;28;20019;-72
2023/05/08 03:07:27;;;;;;;14.05;12.85;;;15.80;99.90;;;;;;2095431;28;20103;-72
2023/05/08 03:08:31;;;;;;;16.42;15.02;;;15.80;99.90;;;;;;2092176;28;20025;-72
2023/05/08 03:09:40;;;;;;;16.50;15.10;;;15.80;99.90;;;;;;2092008;28;21808;-72
2023/05/08 03:10:44;;;;;;;13.82;12.63;;;15.80;99.90;;;;;;2090904;28;20029;-72
2023/05/08 03:11:49;;;;;;;12.75;11.75;;;15.80;99.90;;;;;;2091966;28;20544;-72
2023/05/08 03:12:54;;;;;;;13.50;12.40;;;15.80;99.90;;;;;;2090504;28;20063;-72
2023/05/08 03:13:59;;;;;;;16.55;15.15;;;15.80;99.90;;;;;;2091601;28;20029;-72
2023/05/08 03:15:07;;;;;;;15.68;14.27;;;15.80;99.90;;;;;;2091496;28;20070;-72
2023/05/08 03:16:13;;;;;;;13.55;12.48;;;15.80;99.90;;;;;;2091119;28;20104;-72
2023/05/08 03:17:17;;;;;;;16.80;15.32;;;15.80;99.90;;;;;;2091311;28;20029;-72
2023/05/08 03:18:20;;;;;;;16.50;14.85;;;15.80;99.90;;;;;;2093311;28;20085;-72
2023/05/08 03:19:32;;;;;;;16.90;15.50;;;15.80;99.90;;;;;;2093126;28;20035;-72
2023/05/08 03:20:40;;;;;;;15.02;13.82;;;15.80;99.90;;;;;;2090013;28;20037;-72
2023/05/08 03:21:43;;;;;;;14.40;13.30;;;15.70;99.90;;;;;;2093393;28;20076;-72
2023/05/08 03:22:45;;;;;;;14.27;13.18;;;15.80;99.90;;;;;;2090689;28;20024;-72
2023/05/08 03:23:48;;;;;;;14.73;13.25;;;15.70;99.90;;;;;;2093468;28;20115;-72
2023/05/08 03:24:50;;;;;;;13.65;12.57;;;15.70;99.90;;;;;;2094198;28;20017;-72
2023/05/08 03:25:51;;;;;;;17.30;15.55;;;15.70;99.90;;;;;;2094748;28;20044;-72
2023/05/08 03:26:52;;;;;;;15.98;14.38;;;15.70;99.90;;;;;;2092574;28;20025;-72
2023/05/08 03:27:55;;;;;;;16.42;14.85;;;15.70;99.90;;;;;;2086797;28;20025;-72
2023/05/08 03:28:56;;;;;;;13.68;11.90;;;15.70;99.90;;;;;;2087024;28;20039;-72
2023/05/08 03:29:58;;;;;;;15.38;13.98;;;15.70;99.90;;;;;;2091580;28;20025;-72
2023/05/08 03:31:00;;;;;;;16.67;15.18;;;15.70;99.90;;;;;;2092752;28;20025;-72
2023/05/08 03:32:01;;;;;;;17.35;15.95;;;15.70;99.90;;;;;;2095123;28;20023;-72
2023/05/08 03:33:04;;;;;;;12.10;11.10;;;15.70;99.90;;;;;;2093278;28;20033;-72
2023/05/08 03:34:07;;;;;;;16.13;14.68;;;15.70;99.90;;;;;;2092790;28;20029;-72
2023/05/08 03:35:08;;;;;;;14.85;13.65;;;15.60;99.90;;;;;;2093433;28;20032;-72
2023/05/08 03:36:10;;;;;;;14.50;13.20;;;15.60;99.90;;;;;;2092609;28;20024;-72
2023/05/08 03:37:10;;;;;;;16.42;13.35;;;15.60;99.90;;;;;;2095298;28;20021;-72
2023/05/08 03:38:11;;;;;;;13.60;11.95;;;15.60;99.90;;;;;;2091504;28;20033;-72
2023/05/08 03:39:12;;;;;;;12.75;11.50;;;15.60;99.90;;;;;;2092800;28;20070;-72
2023/05/08 03:40:13;;;;;;;12.05;11.05;;;15.60;99.90;;;;;;2094116;28;20020;-72
2023/05/08 03:41:13;;;;;;;13.13;11.95;;;15.60;99.90;;;;;;2091108;28;20056;-72
2023/05/08 03:42:20;;;;;;;12.45;11.30;;;15.60;99.90;;;;;;2091069;28;20021;-72
2023/05/08 03:43:21;;;;;;;13.82;12.57;;;15.60;99.90;;;;;;2091141;28;20051;-72
2023/05/08 03:44:23;;;;;;;12.95;11.75;;;15.60;99.90;;;;;;2095405;28;20104;-72
2023/05/08 03:45:25;;;;;;;15.25;13.80;;;15.60;99.90;;;;;;2092928;28;20013;-72
2023/05/08 03:46:26;;;;;;;13.52;12.43;;;15.60;99.90;;;;;;2091810;28;20029;-72
2023/05/08 03:47:27;;;;;;;13.95;12.77;;;15.60;99.90;;;;;;2092617;28;20028;-72
2023/05/08 03:48:29;;;;;;;13.57;12.38;;;15.60;99.90;;;;;;2091962;28;20435;-72
2023/05/08 03:49:32;;;;;;;14.15;12.93;;;15.60;99.90;;;;;;2092054;28;20111;-72
2023/05/08 03:50:35;;;;;;;15.57;14.10;;;15.50;99.90;;;;;;2089485;28;20123;-72
2023/05/08 03:51:38;;;;;;;13.30;12.13;;;15.50;99.90;;;;;;2093911;28;20028;-72
2023/05/08 03:52:39;;;;;;;15.55;14.30;;;15.50;99.90;;;;;;2093265;28;20452;-71
2023/05/08 03:53:40;;;;;;;15.55;14.15;;;15.50;99.90;;;;;;2092344;28;20536;-71
2023/05/08 03:54:41;;;;;;;14.75;13.50;;;15.50;99.90;;;;;;2093514;28;20063;-72
2023/05/08 03:55:42;;;;;;;16.13;14.80;;;15.50;99.90;;;;;;2092897;28;20047;-72
2023/05/08 03:56:44;;;;;;;14.40;13.00;;;15.50;99.90;;;;;;2091457;28;20021;-72
2023/05/08 03:57:56;;;;;;;14.07;12.82;;;15.50;99.90;;;;;;2093681;28;20036;-72
2023/05/08 03:59:22;;;;;;;13.23;11.90;;;15.50;99.90;;;;;;2094651;28;20123;-72
2023/05/08 04:00:30;;;;;;;15.73;14.20;;;15.40;99.90;;;;;;2090744;28;20051;-72
2023/05/08 04:01:39;;;;;;;14.25;13.02;;;15.40;99.90;;;;;;2093067;28;20166;-72
2023/05/08 04:02:40;;;;;;;13.57;12.38;;;15.40;99.90;;;;;;2093724;28;20451;-72
2023/05/08 04:04:01;;;;;;;13.55;12.45;;;15.40;99.90;;;;;;2090584;28;20032;-72
2023/05/08 04:05:19;;;;;;;14.88;13.43;;;15.40;99.90;;;;;;2091205;28;20016;-72
2023/05/08 04:06:25;;;;;;;13.77;12.45;;;15.30;99.90;;;;;;2089521;28;20773;-72
2023/05/08 04:07:36;;;;;;;13.20;12.13;;;15.30;99.90;;;;;;2089828;28;20025;-72
2023/05/08 04:08:43;;;;;;;14.05;12.93;;;15.30;99.90;;;;;;2090550;28;20422;-72
2023/05/08 04:09:58;;;;;;;16.45;14.95;;;15.30;99.90;;;;;;2090244;28;20443;-72
2023/05/08 04:11:01;;;;;;;14.57;13.07;;;15.30;99.90;;;;;;2090885;28;20492;-72
2023/05/08 04:12:16;;;;;;;13.20;12.10;;;15.20;99.90;;;;;;2092111;28;20029;-72
2023/05/08 04:13:27;;;;;;;16.27;14.88;;;15.20;99.90;;;;;;2091694;28;20020;-72
2023/05/08 04:14:35;;;;;;;14.43;13.25;;;15.20;99.90;;;;;;2091705;28;20029;-71
2023/05/08 04:15:43;;;;;;;14.73;13.52;;;15.20;99.90;;;;;;2093278;28;20024;-72
2023/05/08 04:16:49;;;;;;;13.57;12.38;;;15.20;99.90;;;;;;2095089;28;20028;-72
2023/05/08 04:17:58;;;;;;;13.30;12.20;;;15.20;99.90;;;;;;2089128;28;20032;-72
2023/05/08 04:19:14;;;;;;;12.98;11.88;;;15.20;99.90;;;;;;2092959;28;20373;-72
2023/05/08 04:20:18;;;;;;;13.52;12.43;;;15.20;99.90;;;;;;2091165;28;20036;-72
2023/05/08 04:21:23;;;;;;;14.48;13.18;;;15.20;99.90;;;;;;2092188;28;20564;-72
2023/05/08 04:22:25;;;;;;;16.55;15.15;;;15.10;99.90;;;;;;2092893;28;20024;-72
2023/05/08 04:23:28;;;;;;;17.15;15.55;;;15.10;99.90;;;;;;2092880;28;20016;-72
2023/05/08 04:24:30;;;;;;;14.38;13.18;;;15.20;99.90;;;;;;2091433;28;20021;-72
2023/05/08 04:25:36;;;;;;;15.52;14.23;;;15.10;99.90;;;;;;2092356;28;20052;-72
2023/05/08 04:26:37;;;;;;;14.40;12.20;;;15.10;99.90;;;;;;2094966;28;20031;-72
2023/05/08 04:27:38;;;;;;;14.05;12.52;;;15.10;99.90;;;;;;2091715;28;20024;-72
2023/05/08 04:28:39;;;;;;;12.85;11.85;;;15.10;99.90;;;;;;2084923;28;20052;-72
2023/05/08 04:29:40;;;;;;;11.38;10.43;;;15.10;99.90;;;;;;2093001;28;20055;-72
2023/05/08 04:30:41;;;;;;;16.73;13.75;;;15.10;99.90;;;;;;2092806;28;20033;-72
2023/05/08 04:31:42;;;;;;;11.98;11.07;;;15.10;99.90;;;;;;2092741;28;20547;-72
2023/05/08 04:32:43;;;;;;;13.38;12.05;;;15.10;99.90;;;;;;2092283;28;20040;-72
2023/05/08 04:33:45;;;;;;;13.65;12.35;;;15.10;99.90;;;;;;2092338;28;20764;-72
2023/05/08 04:34:46;;;;;;;14.85;13.45;;;15.10;99.90;;;;;;2093685;28;20024;-72
2023/05/08 04:35:47;;;;;;;15.27;13.88;;;15.10;99.90;;;;;;2091367;28;20055;-72
2023/05/08 04:36:47;;;;;;;17.33;15.70;;;15.10;99.90;;;;;;2092809;28;20125;-72
2023/05/08 04:37:48;;;;;;;14.23;12.82;;;15.10;99.90;;;;;;2091222;28;20816;-72
2023/05/08 04:38:49;;;;;;;15.60;14.30;;;15.10;99.90;;;;;;2092323;28;20426;-72
2023/05/08 04:39:50;;;;;;;15.98;14.52;;;15.10;99.90;;;;;;2091573;28;20099;-72
2023/05/08 04:40:51;;;;;;;13.20;12.20;;;15.10;99.90;;;;;;2093377;28;20028;-72
2023/05/08 04:41:54;;;;;;;16.50;15.10;;;15.10;99.90;;;;;;2094556;28;20052;-72
2023/05/08 04:42:54;;;;;;;12.52;11.45;;;15.10;99.90;;;;;;2095765;28;20465;-72
2023/05/08 04:43:55;;;;;;;13.93;12.63;;;15.10;99.90;;;;;;2093991;28;20375;-72
2023/05/08 04:44:56;;;;;;;14.38;13.07;;;15.10;99.90;;;;;;2095883;28;20028;-72
2023/05/08 04:45:56;;;;;;;15.50;14.10;;;15.10;99.90;;;;;;2093995;28;20103;-72
2023/05/08 04:46:57;;;;;;;14.63;13.32;;;15.10;99.90;;;;;;2094689;28;20029;-72
2023/05/08 04:47:57;;;;;;;16.10;14.48;;;15.10;99.90;;;;;;2095181;28;20029;-72
2023/05/08 04:48:58;;;;;;;14.15;12.80;;;15.10;99.90;;;;;;2094411;28;20023;-72
2023/05/08 04:49:58;;;;;;;15.80;14.15;;;15.10;99.90;;;;;;2094396;28;20085;-72
2023/05/08 04:50:59;;;;;;;16.15;14.65;;;15.10;99.90;;;;;;2095071;28;20069;-72
2023/05/08 04:52:00;;;;;;;15.25;14.05;;;15.10;99.90;;;;;;2096455;28;20117;-72
2023/05/08 04:53:01;;;;;;;13.65;12.55;;;15.10;99.90;;;;;;2095776;28;20033;-72
2023/05/08 04:54:01;;;;;;;17.10;15.63;;;15.10;99.90;;;;;;2093674;28;20035;-72
2023/05/08 04:55:02;;;;;;;17.45;16.05;;;15.10;99.90;;;;;;2094036;28;20032;-72
2023/05/08 04:56:03;;;;;;;18.13;16.52;;;15.10;99.90;;;;;;2094952;28;20025;-72
2023/05/08 04:57:03;;;;;;;18.38;16.77;;;15.10;99.90;;;;;;2092747;28;20037;-72
2023/05/08 04:58:04;;;;;;;18.25;16.55;;;15.10;99.90;;;;;;2091222;28;20031;-72
2023/05/08 04:59:05;;;;;;;20.42;18.13;;;15.10;99.90;;;;;;2092443;28;20017;-72
2023/05/08 05:00:06;;;;;;;18.85;17.10;;;15.10;99.90;;;;;;2091762;28;20468;-72
2023/05/08 05:01:07;;;;;;;18.02;16.50;;;15.10;99.90;;;;;;2092415;28;20102;-72
2023/05/08 05:02:08;;;;;;;19.40;17.70;;;15.10;99.90;;;;;;2091681;28;20107;-72
2023/05/08 05:03:08;;;;;;;18.98;17.08;;;15.10;99.90;;;;;;2093763;28;20086;-72
2023/05/08 05:04:08;;;;;;;19.08;17.40;;;15.10;99.90;;;;;;2093943;28;20025;-72
2023/05/08 05:05:10;;;;;;;18.63;16.90;;;15.10;99.90;;;;;;2093300;28;20025;-72
2023/05/08 05:06:11;;;;;;;17.83;16.13;;;15.10;99.90;;;;;;2094459;28;20538;-72
2023/05/08 05:07:11;;;;;;;18.70;16.90;;;15.10;99.90;;;;;;2091865;28;20433;-72
2023/05/08 05:08:11;;;;;;;18.73;17.15;;;15.10;99.90;;;;;;2091265;28;20171;-72
2023/05/08 05:09:12;;;;;;;17.42;15.82;;;15.10;99.90;;;;;;2092300;28;20029;-72
2023/05/08 05:10:13;;;;;;;18.08;16.58;;;15.10;99.90;;;;;;2091107;28;20099;-72
2023/05/08 05:11:13;;;;;;;18.35;16.73;;;15.10;99.90;;;;;;2095462;28;20084;-72
2023/05/08 05:12:14;;;;;;;17.88;16.17;;;15.10;99.90;;;;;;2096831;28;20115;-72
2023/05/08 05:13:15;;;;;;;17.30;15.70;;;15.10;99.90;;;;;;2095155;28;20012;-72
2023/05/08 05:14:15;;;;;;;17.58;16.08;;;15.10;99.90;;;;;;2094866;28;20051;-72
2023/05/08 05:15:16;;;;;;;18.85;16.95;;;15.10;99.90;;;;;;2094273;28;20029;-72
2023/05/08 05:16:16;;;;;;;17.75;16.15;;;15.10;99.90;;;;;;2093737;28;20077;-72
2023/05/08 05:17:17;;;;;;;18.45;16.80;;;15.10;99.90;;;;;;2093969;28;20036;-72
2023/05/08 05:18:17;;;;;;;17.67;16.17;;;15.10;99.90;;;;;;2093101;28;20074;-72
2023/05/08 05:19:18;;;;;;;19.58;17.85;;;15.10;99.90;;;;;;2092140;28;20034;-72
2023/05/08 05:20:18;;;;;;;17.83;16.30;;;15.20;99.90;;;;;;2092632;28;20400;-72
2023/05/08 05:21:19;;;;;;;17.38;15.77;;;15.20;99.90;;;;;;2093696;28;20032;-72
2023/05/08 05:22:19;;;;;;;19.13;17.40;;;15.20;99.90;;;;;;2095674;28;20024;-72
2023/05/08 05:23:20;;;;;;;17.17;15.73;;;15.20;99.90;;;;;;2094626;28;20016;-72
2023/05/08 05:24:20;;;;;;;18.92;17.30;;;15.20;99.90;;;;;;2091866;28;20112;-72
2023/05/08 05:25:21;;;;;;;17.45;15.98;;;15.30;99.90;;;;;;2091853;28;20100;-72
2023/05/08 05:26:22;;;;;;;16.75;15.18;;;15.30;99.90;;;;;;2094261;28;20027;-72
2023/05/08 05:27:23;;;;;;;18.27;16.65;;;15.30;99.90;;;;;;2095440;28;20008;-72
2023/05/08 05:28:24;;;;;;;18.55;16.95;;;15.40;99.90;;;;;;2092981;28;20476;-72